createdAt,value
2017-09-04T00:02:21.164Z,66.20
2017-09-04T00:04:47.323Z,66.40
2017-09-04T00:07:13.479Z,66.60
2017-09-04T00:09:39.674Z,67.10
2017-09-04T00:12:05.864Z,67.40
2017-09-04T00:14:32.055Z,67.60
2017-09-04T00:16:58.442Z,67.60
2017-09-04T00:19:24.630Z,67.60
2017-09-04T00:21:50.845Z,67.80
2017-09-04T00:24:17.006Z,67.80
2017-09-04T00:26:44.006Z,67.10
2017-09-04T00:29:10.182Z,66.80
2017-09-04T00:31:36.407Z,67.50
2017-09-04T00:34:02.617Z,67.20
2017-09-04T00:36:28.762Z,68.10
2017-09-04T00:38:54.963Z,67.80
2017-09-04T00:41:21.206Z,67.40
2017-09-04T00:43:47.555Z,68.30
2017-09-04T00:46:13.736Z,69.10
2017-09-04T00:48:39.908Z,68.70
2017-09-04T00:51:06.136Z,69.30
2017-09-04T00:53:32.323Z,69.10
2017-09-04T00:55:58.541Z,69.30
2017-09-04T00:58:24.756Z,69.30
2017-09-04T01:00:50.903Z,68.80
2017-09-04T01:03:17.131Z,68.50
2017-09-04T01:05:43.314Z,69.30
2017-09-04T01:08:09.530Z,68.70
2017-09-04T01:10:35.690Z,68.20
2017-09-04T01:13:02.010Z,68.80
2017-09-04T01:15:28.185Z,68.30
2017-09-04T01:17:54.334Z,67.50
2017-09-04T01:20:20.534Z,68.20
2017-09-04T01:22:46.922Z,67.80
2017-09-04T01:25:13.072Z,67.90
2017-09-04T01:27:39.250Z,68.00
2017-09-04T01:30:05.391Z,68.30
2017-09-04T01:32:31.586Z,68.30
2017-09-04T01:34:57.716Z,67.80
2017-09-04T01:37:23.890Z,68.30
2017-09-04T01:39:50.055Z,68.80
2017-09-04T01:42:16.238Z,68.10
2017-09-04T01:44:42.398Z,68.00
2017-09-04T01:47:08.602Z,68.30
2017-09-04T01:49:34.745Z,68.70
2017-09-04T01:52:00.934Z,68.60
2017-09-04T01:54:27.119Z,68.80
2017-09-04T01:56:53.313Z,68.80
2017-09-04T01:59:19.448Z,69.30
2017-09-04T02:01:45.667Z,68.70
2017-09-04T02:04:11.794Z,68.90
2017-09-04T02:06:37.969Z,69.10
2017-09-04T02:09:04.164Z,69.10
2017-09-04T02:11:30.632Z,69.40
2017-09-04T02:13:56.859Z,70.00
2017-09-04T02:16:23.090Z,69.60
2017-09-04T02:18:49.249Z,69.10
2017-09-04T02:21:15.412Z,69.70
2017-09-04T02:23:41.598Z,70.10
2017-09-04T02:26:07.762Z,70.60
2017-09-04T02:28:33.950Z,69.40
2017-09-04T02:31:00.133Z,70.20
2017-09-04T02:33:26.319Z,70.30
2017-09-04T02:35:52.468Z,70.80
2017-09-04T02:38:18.598Z,70.70
2017-09-04T02:40:44.773Z,70.80
2017-09-04T02:43:10.950Z,71.20
2017-09-04T02:45:37.083Z,71.40
2017-09-04T02:48:03.265Z,71.50
2017-09-04T02:50:29.422Z,71.50
2017-09-04T02:52:55.582Z,71.40
2017-09-04T02:55:21.749Z,71.50
2017-09-04T02:57:47.898Z,71.40
2017-09-04T03:00:14.074Z,71.30
2017-09-04T03:02:40.725Z,71.50
2017-09-04T03:05:06.861Z,71.00
2017-09-04T03:07:33.003Z,70.70
2017-09-04T03:09:59.502Z,70.50
2017-09-04T03:12:25.690Z,70.30
2017-09-04T03:14:51.870Z,71.30
2017-09-04T03:17:18.087Z,72.00
2017-09-04T03:19:44.255Z,72.00
2017-09-04T03:22:10.954Z,71.80
2017-09-04T03:24:37.135Z,72.50
2017-09-04T03:27:03.302Z,71.40
2017-09-04T03:29:29.475Z,71.50
2017-09-04T03:31:55.658Z,72.10
2017-09-04T03:34:21.947Z,71.70
2017-09-04T03:36:48.146Z,71.70
2017-09-04T03:39:14.365Z,70.90
2017-09-04T03:41:40.582Z,70.50
2017-09-04T03:44:06.822Z,70.30
2017-09-04T03:46:33.042Z,70.80
2017-09-04T03:48:59.294Z,70.60
2017-09-04T03:51:25.540Z,69.70
2017-09-04T03:53:52.502Z,69.50
2017-09-04T03:56:18.751Z,69.50
2017-09-04T03:58:44.962Z,69.50
2017-09-04T04:01:11.184Z,69.50
2017-09-04T04:03:37.384Z,70.40
2017-09-04T04:06:03.595Z,71.20
2017-09-04T04:08:29.786Z,71.90
2017-09-04T04:10:55.987Z,71.70
2017-09-04T04:13:22.227Z,72.10
2017-09-04T04:15:48.397Z,72.00
2017-09-04T04:18:14.621Z,71.70
2017-09-04T04:20:40.820Z,71.10
2017-09-04T04:23:07.313Z,71.40
2017-09-04T04:25:33.526Z,71.10
2017-09-04T04:27:59.694Z,71.70
2017-09-04T04:30:25.982Z,72.20
2017-09-04T04:32:52.121Z,71.80
2017-09-04T04:35:18.312Z,72.90
2017-09-04T04:37:44.473Z,72.70
2017-09-04T04:40:10.690Z,72.30
2017-09-04T04:42:51.801Z,72.00
2017-09-04T04:45:17.999Z,72.60
2017-09-04T04:47:44.157Z,72.10
2017-09-04T04:50:10.322Z,72.80
2017-09-04T04:52:36.511Z,72.50
2017-09-04T04:55:02.702Z,73.20
2017-09-04T04:57:28.883Z,73.20
2017-09-04T04:59:55.041Z,72.50
2017-09-04T05:02:21.212Z,73.10
2017-09-04T05:04:47.388Z,72.50
2017-09-04T05:07:13.554Z,72.50
2017-09-04T05:09:40.193Z,71.90
2017-09-04T05:12:06.404Z,72.00
2017-09-04T05:14:32.570Z,71.80
2017-09-04T05:16:58.745Z,72.00
2017-09-04T05:19:24.921Z,72.60
2017-09-04T05:21:51.090Z,72.30
2017-09-04T05:24:17.266Z,71.00
2017-09-04T05:26:43.447Z,70.30
2017-09-04T05:29:09.630Z,69.50
2017-09-04T05:31:35.815Z,68.20
2017-09-04T05:34:02.018Z,70.50
2017-09-04T05:36:28.701Z,69.30
2017-09-04T05:38:54.868Z,68.10
2017-09-04T05:41:21.042Z,67.50
2017-09-04T05:43:47.221Z,68.20
2017-09-04T05:46:13.415Z,68.50
2017-09-04T05:48:39.594Z,68.90
2017-09-04T05:51:05.811Z,68.10
2017-09-04T05:53:32.018Z,68.10
2017-09-04T05:55:58.200Z,68.10
2017-09-04T05:58:24.410Z,66.90
2017-09-04T06:00:50.625Z,66.80
2017-09-04T06:03:17.563Z,67.00
2017-09-04T06:05:43.774Z,66.90
2017-09-04T06:08:09.951Z,67.20
2017-09-04T06:10:36.166Z,65.60
2017-09-04T06:13:02.326Z,65.10
2017-09-04T06:15:28.493Z,65.00
2017-09-04T06:17:54.677Z,64.30
2017-09-04T06:20:20.854Z,65.60
2017-09-04T06:22:47.034Z,66.30
2017-09-04T06:25:13.203Z,65.60
2017-09-04T06:27:40.151Z,66.00
2017-09-04T06:30:07.292Z,66.10
2017-09-04T06:32:33.473Z,65.00
2017-09-04T06:34:59.592Z,66.70
2017-09-04T06:37:25.772Z,65.10
2017-09-04T06:39:51.941Z,64.90
2017-09-04T06:42:18.154Z,63.70
2017-09-04T06:44:44.319Z,63.90
2017-09-04T06:47:10.515Z,63.60
2017-09-04T06:49:36.670Z,63.50
2017-09-04T06:52:02.807Z,64.30
2017-09-04T06:54:28.984Z,63.40
2017-09-04T06:56:55.154Z,63.50
2017-09-04T06:59:21.369Z,62.20
2017-09-04T07:01:47.514Z,61.60
2017-09-04T07:04:13.687Z,62.00
2017-09-04T07:06:39.875Z,61.40
2017-09-04T07:09:06.054Z,62.30
2017-09-04T07:11:32.265Z,61.10
2017-09-04T07:13:58.471Z,62.10
2017-09-04T07:16:24.639Z,62.00
2017-09-04T07:18:50.803Z,62.50
2017-09-04T07:21:17.021Z,61.00
2017-09-04T07:23:43.206Z,61.80
2017-09-04T07:26:09.339Z,60.50
2017-09-04T07:28:35.511Z,59.60
2017-09-04T07:31:01.682Z,58.80
2017-09-04T07:33:28.013Z,57.60
2017-09-04T07:35:54.186Z,58.10
2017-09-04T07:38:21.198Z,57.10
2017-09-04T07:40:47.371Z,57.70
2017-09-04T07:43:13.569Z,56.60
2017-09-04T07:45:39.751Z,57.80
2017-09-04T07:48:06.012Z,56.90
2017-09-04T07:50:32.214Z,56.20
2017-09-04T07:52:58.462Z,56.90
2017-09-04T07:55:24.655Z,56.20
2017-09-04T07:57:52.286Z,55.60
2017-09-04T08:00:19.519Z,55.40
2017-09-04T08:02:45.790Z,54.80
2017-09-04T08:05:11.987Z,53.20
2017-09-04T08:07:38.913Z,52.30
2017-09-04T08:10:05.162Z,52.70
2017-09-04T08:12:31.374Z,52.90
2017-09-04T08:14:58.692Z,53.50
2017-09-04T08:17:24.884Z,51.70
2017-09-04T08:20:06.041Z,50.60
2017-09-04T08:22:32.271Z,50.00
2017-09-04T08:24:58.424Z,50.00
2017-09-04T08:27:24.595Z,50.20
2017-09-04T08:29:50.800Z,49.20
2017-09-04T08:32:16.967Z,49.70
2017-09-04T08:34:43.152Z,50.40
2017-09-04T08:37:09.634Z,50.50
2017-09-04T08:39:35.834Z,50.80
2017-09-04T08:42:02.396Z,51.00
2017-09-04T08:44:29.263Z,51.70
2017-09-04T08:56:40.502Z,51.80
2017-09-04T08:59:06.637Z,49.90
2017-09-04T09:01:32.833Z,49.60
2017-09-04T09:03:59.082Z,49.60
2017-09-04T09:06:26.012Z,48.70
2017-09-04T09:08:52.185Z,49.00
2017-09-04T09:11:18.339Z,48.90
2017-09-04T09:13:44.551Z,49.00
2017-09-04T09:16:11.864Z,48.40
2017-09-04T09:18:38.125Z,49.20
2017-09-04T09:21:05.492Z,49.00
2017-09-04T09:33:16.676Z,48.50
2017-09-04T09:35:48.950Z,46.30
2017-09-04T09:38:15.140Z,46.00
2017-09-04T09:40:41.373Z,45.80
2017-09-04T09:43:07.547Z,42.90
2017-09-04T09:45:33.711Z,44.20
2017-09-04T09:48:00.218Z,43.90
2017-09-04T09:50:26.403Z,44.30
2017-09-04T09:52:52.583Z,43.90
2017-09-04T09:55:19.423Z,42.90
2017-09-04T09:57:45.625Z,42.90
2017-09-04T10:00:11.876Z,42.70
2017-09-04T10:02:38.106Z,42.50
2017-09-04T10:05:04.369Z,42.30
2017-09-04T10:07:30.565Z,42.40
2017-09-04T10:09:57.517Z,42.30
2017-09-04T10:12:23.742Z,42.10
2017-09-04T10:14:51.657Z,41.90
2017-09-04T10:17:17.889Z,41.30
2017-09-04T10:19:44.862Z,41.00
2017-09-04T10:22:11.078Z,40.90
2017-09-04T10:24:37.290Z,40.20
2017-09-04T10:27:03.516Z,40.90
2017-09-04T10:29:30.489Z,40.30
2017-09-04T10:31:57.059Z,40.30
2017-09-04T10:34:24.016Z,40.10
2017-09-04T10:36:50.234Z,40.10
2017-09-04T10:39:16.524Z,39.90
2017-09-04T10:41:42.763Z,39.00
2017-09-04T10:44:08.938Z,39.30
2017-09-04T10:46:35.154Z,38.60
2017-09-04T10:49:01.371Z,37.90
2017-09-04T10:51:27.578Z,38.10
2017-09-04T10:53:53.812Z,36.80
2017-09-04T10:56:21.330Z,36.70
2017-09-04T10:58:47.556Z,37.30
2017-09-04T11:01:13.733Z,37.40
2017-09-04T11:03:39.995Z,35.80
2017-09-04T11:06:06.184Z,36.10
2017-09-04T11:08:32.380Z,37.70
2017-09-04T11:10:58.643Z,38.40
2017-09-04T11:13:25.730Z,39.20
2017-09-04T11:15:51.986Z,38.60
2017-09-04T11:18:18.203Z,37.20
2017-09-04T11:20:44.475Z,37.50
2017-09-04T11:23:10.677Z,38.50
2017-09-04T11:25:36.910Z,39.30
2017-09-04T11:28:03.074Z,39.60
2017-09-04T11:30:30.145Z,39.60
2017-09-04T11:32:56.336Z,40.30
2017-09-04T11:35:22.545Z,40.20
2017-09-04T11:37:49.119Z,39.80
2017-09-04T11:40:15.302Z,40.20
2017-09-04T11:42:41.481Z,38.70
2017-09-04T11:45:08.583Z,37.90
2017-09-04T11:47:35.126Z,38.10
2017-09-04T11:50:01.654Z,37.60
2017-09-04T11:52:27.908Z,37.10
2017-09-04T11:54:54.190Z,37.50
2017-09-04T11:57:21.215Z,38.00
2017-09-04T11:59:47.456Z,36.90
2017-09-04T12:02:13.646Z,36.50
2017-09-04T12:04:40.123Z,36.60
2017-09-04T12:07:06.287Z,36.10
2017-09-04T12:09:32.479Z,36.20
2017-09-04T12:11:58.795Z,35.80
2017-09-04T12:14:25.813Z,36.60
2017-09-04T12:16:52.051Z,40.00
2017-09-04T12:19:18.586Z,40.80
2017-09-04T12:21:44.776Z,39.50
2017-09-04T12:24:10.981Z,38.80
2017-09-04T12:26:37.174Z,37.20
2017-09-04T12:29:03.406Z,36.20
2017-09-04T12:31:29.614Z,35.20
2017-09-04T12:33:55.764Z,35.30
2017-09-04T12:36:21.983Z,35.40
2017-09-04T12:38:48.193Z,34.40
2017-09-04T12:41:14.406Z,35.00
2017-09-04T12:43:40.634Z,35.20
2017-09-04T12:46:06.897Z,34.50
2017-09-04T12:48:33.162Z,33.90
2017-09-04T12:50:59.343Z,32.10
2017-09-04T12:53:25.545Z,32.80
2017-09-04T12:55:51.749Z,32.40
2017-09-04T12:58:18.690Z,31.20
2017-09-04T13:00:44.888Z,31.80
2017-09-04T13:03:11.136Z,32.20
2017-09-04T13:05:37.314Z,31.80
2017-09-04T13:08:03.501Z,34.90
2017-09-04T13:10:35.723Z,35.50
2017-09-04T13:13:06.325Z,34.60
2017-09-04T13:15:39.539Z,32.90
2017-09-04T13:18:11.843Z,33.40
2017-09-04T13:20:38.055Z,33.70
2017-09-04T13:23:06.267Z,34.40
2017-09-04T13:25:34.506Z,34.70
2017-09-04T13:28:07.605Z,34.80
2017-09-04T13:33:40.862Z,34.30
2017-09-04T13:36:13.173Z,32.00
2017-09-04T13:38:45.476Z,32.90
2017-09-04T13:41:11.662Z,33.90
2017-09-04T13:43:43.991Z,34.40
2017-09-04T13:46:16.107Z,31.40
2017-09-04T13:48:52.526Z,32.90
2017-09-04T13:51:22.659Z,33.00
2017-09-04T13:53:55.022Z,32.70
2017-09-04T13:56:24.142Z,33.40
2017-09-04T13:58:57.049Z,33.70
2017-09-04T14:01:23.295Z,33.90
2017-09-04T14:03:49.503Z,34.60
2017-09-04T14:09:16.803Z,35.80
2017-09-04T14:11:49.057Z,36.90
2017-09-04T14:14:18.166Z,36.60
2017-09-04T14:16:45.318Z,37.70
2017-09-04T14:19:11.509Z,37.60
2017-09-04T14:21:37.707Z,37.60
2017-09-04T14:24:04.383Z,38.50
2017-09-04T14:26:30.583Z,38.60
2017-09-04T14:28:58.271Z,38.80
2017-09-04T14:31:25.405Z,37.30
2017-09-04T14:33:53.484Z,39.10
2017-09-04T14:36:19.707Z,37.10
2017-09-04T14:38:45.902Z,37.80
2017-09-04T14:41:24.046Z,39.10
2017-09-04T14:46:56.766Z,39.30
2017-09-04T14:49:24.238Z,41.70
2017-09-04T14:51:50.463Z,42.10
2017-09-04T14:54:16.705Z,43.40
2017-09-04T14:56:43.282Z,43.60
2017-09-04T14:59:10.435Z,44.20
2017-09-04T15:01:37.246Z,45.10
2017-09-04T15:04:03.419Z,45.90
2017-09-04T15:06:29.678Z,46.30
2017-09-04T15:08:56.325Z,46.70
2017-09-04T15:11:23.626Z,47.30
2017-09-04T15:13:49.895Z,47.80
2017-09-04T15:16:16.088Z,48.90
2017-09-04T15:18:42.279Z,48.60
2017-09-04T15:21:08.450Z,49.00
2017-09-04T15:23:34.664Z,48.60
2017-09-04T15:26:02.045Z,49.10
2017-09-04T15:28:28.310Z,48.90
2017-09-04T15:30:54.559Z,49.20
2017-09-04T15:33:20.738Z,50.00
2017-09-04T15:35:47.000Z,50.40
2017-09-04T15:38:13.205Z,49.80
2017-09-04T15:40:39.433Z,50.00
2017-09-04T15:43:06.855Z,50.10
2017-09-04T15:45:33.135Z,49.60
2017-09-04T15:47:59.359Z,50.50
2017-09-04T15:50:25.518Z,49.90
2017-09-04T15:52:52.594Z,50.10
2017-09-04T15:55:19.553Z,49.80
2017-09-04T15:57:45.723Z,50.80
2017-09-04T16:00:11.962Z,50.80
2017-09-04T16:02:38.163Z,49.80
2017-09-04T16:05:04.380Z,50.70
2017-09-04T16:07:41.435Z,49.30
2017-09-04T16:10:08.556Z,49.80
2017-09-04T16:12:39.678Z,50.50
2017-09-04T16:15:08.790Z,50.70
2017-09-04T16:17:37.870Z,50.80
2017-09-04T16:20:21.804Z,50.80
2017-09-04T16:22:51.354Z,50.80
2017-09-04T16:25:19.938Z,50.90
2017-09-04T16:27:52.304Z,50.60
2017-09-04T16:33:17.503Z,51.00
2017-09-04T16:35:43.774Z,50.10
2017-09-04T16:38:11.891Z,51.20
2017-09-04T16:40:38.866Z,51.10
2017-09-04T16:43:11.239Z,51.40
2017-09-04T16:45:41.504Z,50.80
2017-09-04T16:48:22.993Z,51.00
2017-09-04T16:50:49.219Z,50.30
2017-09-04T16:53:30.332Z,52.00
2017-09-04T16:55:56.516Z,51.70
2017-09-04T16:58:22.723Z,50.90
2017-09-04T17:00:48.934Z,51.00
2017-09-04T17:03:15.155Z,50.80
2017-09-04T17:05:41.354Z,51.00
2017-09-04T17:08:10.320Z,50.70
2017-09-04T17:10:54.695Z,51.00
2017-09-04T17:13:20.894Z,51.40
2017-09-04T17:15:49.910Z,51.90
2017-09-04T17:18:17.006Z,52.50
2017-09-04T17:20:47.133Z,53.10
2017-09-04T17:23:17.863Z,53.80
2017-09-04T17:25:44.476Z,54.20
2017-09-04T17:28:10.667Z,54.30
2017-09-04T17:30:38.392Z,55.00
2017-09-04T17:33:04.673Z,55.70
2017-09-04T17:35:32.803Z,55.60
2017-09-04T17:37:59.182Z,55.40
2017-09-04T17:40:25.405Z,55.30
2017-09-04T17:42:51.974Z,55.90
2017-09-04T17:45:20.359Z,55.70
2017-09-04T17:47:46.611Z,57.10
2017-09-04T17:50:12.892Z,56.40
2017-09-04T17:52:41.268Z,56.60
2017-09-04T17:55:07.512Z,57.00
2017-09-04T17:57:33.775Z,56.80
2017-09-04T18:00:02.270Z,57.50
2017-09-04T18:02:29.166Z,57.50
2017-09-04T18:04:55.381Z,57.30
2017-09-04T18:07:21.549Z,57.60
2017-09-04T18:09:47.764Z,57.00
2017-09-04T18:12:13.980Z,57.90
2017-09-04T18:14:41.627Z,57.80
2017-09-04T18:17:08.645Z,57.30
2017-09-04T18:19:34.874Z,57.30
2017-09-04T18:22:01.171Z,57.80
2017-09-04T18:24:27.635Z,57.70
2017-09-04T18:26:54.954Z,58.30
2017-09-04T18:29:21.165Z,57.50
2017-09-04T18:31:47.446Z,57.90
2017-09-04T18:34:13.674Z,57.90
2017-09-04T18:36:41.769Z,58.40
2017-09-04T18:39:08.024Z,58.50
2017-09-04T18:41:34.307Z,58.40
2017-09-04T18:44:00.554Z,58.60
2017-09-04T18:46:29.483Z,59.30
2017-09-04T18:48:56.157Z,58.90
2017-09-04T18:51:22.486Z,59.80
2017-09-04T18:53:48.703Z,59.30
2017-09-04T18:56:14.963Z,59.70
2017-09-04T18:58:42.559Z,59.70
2017-09-04T19:01:08.792Z,59.50
2017-09-04T19:03:36.703Z,59.70
2017-09-04T19:06:02.968Z,59.80
2017-09-04T19:08:29.167Z,59.70
2017-09-04T19:10:56.163Z,58.80
2017-09-04T19:13:22.934Z,58.90
2017-09-04T19:15:49.189Z,58.80
2017-09-04T19:18:15.384Z,59.50
2017-09-04T19:20:42.901Z,59.50
2017-09-04T19:23:09.971Z,59.40
2017-09-04T19:25:36.211Z,59.30
2017-09-04T19:28:03.363Z,58.50
2017-09-04T19:30:31.174Z,59.70
2017-09-04T19:32:57.449Z,59.30
2017-09-04T19:35:23.733Z,58.20
2017-09-04T19:37:50.347Z,58.90
2017-09-04T19:40:16.667Z,59.10
2017-09-04T19:42:42.881Z,59.40
2017-09-04T19:45:10.034Z,58.80
2017-09-04T19:47:36.327Z,59.40
2017-09-04T19:50:03.409Z,59.00
2017-09-04T19:52:30.003Z,58.80
2017-09-04T19:54:56.726Z,59.10
2017-09-04T19:57:22.948Z,59.40
2017-09-04T19:59:49.861Z,60.20
2017-09-04T20:02:16.109Z,59.70
2017-09-04T20:04:42.323Z,59.60
2017-09-04T20:07:08.610Z,59.40
2017-09-04T20:09:34.842Z,59.10
2017-09-04T20:12:01.092Z,59.50
2017-09-04T20:14:27.831Z,59.30
2017-09-04T20:16:54.072Z,60.50
2017-09-04T20:19:20.286Z,59.30
2017-09-04T20:21:46.628Z,59.60
2017-09-04T20:24:13.827Z,59.40
2017-09-04T20:36:25.051Z,60.50
2017-09-04T20:38:51.845Z,60.80
2017-09-04T20:41:20.728Z,60.10
2017-09-04T20:43:47.923Z,60.60
2017-09-04T20:46:14.143Z,60.00
2017-09-04T20:48:40.365Z,59.70
2017-09-04T20:51:07.390Z,60.80
2017-09-04T20:53:33.584Z,61.30
2017-09-04T20:55:59.734Z,60.90
2017-09-04T20:58:25.959Z,60.80
2017-09-04T21:00:52.341Z,60.00
2017-09-04T21:03:18.629Z,60.10
2017-09-04T21:05:44.858Z,60.80
2017-09-04T21:08:11.088Z,60.20
2017-09-04T21:10:37.293Z,60.40
2017-09-04T21:13:04.447Z,60.40
2017-09-04T21:15:31.026Z,60.90
2017-09-04T21:17:57.581Z,60.90
2017-09-04T21:20:23.849Z,60.80
2017-09-04T21:22:50.095Z,61.50
2017-09-04T21:25:16.316Z,61.30
2017-09-04T21:27:43.847Z,61.30
2017-09-04T21:30:10.074Z,61.20
2017-09-04T21:32:36.306Z,62.30
2017-09-04T21:35:03.578Z,62.20
2017-09-04T21:37:29.800Z,61.70
2017-09-04T21:39:56.005Z,61.70
2017-09-04T21:42:22.295Z,61.20
2017-09-04T21:44:48.514Z,61.60
2017-09-04T21:47:14.715Z,61.80
2017-09-04T21:49:41.783Z,61.50
2017-09-04T21:52:07.933Z,61.30
2017-09-04T21:54:34.182Z,61.90
2017-09-04T21:57:00.353Z,62.60
2017-09-04T21:59:27.474Z,62.70
2017-09-04T22:01:53.733Z,63.30
2017-09-04T22:04:19.891Z,63.40
2017-09-04T22:06:46.782Z,63.80
2017-09-04T22:09:12.959Z,64.40
2017-09-04T22:11:39.214Z,65.20
2017-09-04T22:14:05.389Z,65.30
2017-09-04T22:16:31.583Z,65.20
2017-09-04T22:18:57.786Z,65.90
2017-09-04T22:21:24.009Z,66.10
2017-09-04T22:23:50.221Z,66.40
2017-09-04T22:26:16.445Z,66.50
2017-09-04T22:28:42.628Z,65.50
2017-09-04T22:31:08.876Z,65.90
2017-09-04T22:33:35.111Z,65.70
2017-09-04T22:36:01.321Z,66.50
2017-09-04T22:38:27.569Z,67.20
2017-09-04T22:40:53.923Z,67.00
2017-09-04T22:43:20.072Z,68.20
2017-09-04T22:45:46.308Z,68.30
2017-09-04T22:48:12.534Z,68.70
2017-09-04T22:50:38.731Z,69.40
2017-09-04T22:53:04.963Z,70.10
2017-09-04T22:55:31.157Z,68.80
2017-09-04T22:57:58.182Z,69.40
2017-09-04T23:00:24.430Z,69.40
2017-09-04T23:02:50.655Z,69.60
2017-09-04T23:05:17.377Z,69.80
2017-09-04T23:07:43.556Z,69.70
2017-09-04T23:10:10.153Z,69.30
2017-09-04T23:12:36.363Z,69.40
2017-09-04T23:15:02.534Z,69.70
2017-09-04T23:17:28.734Z,70.40
2017-09-04T23:19:54.981Z,70.70
2017-09-04T23:22:21.132Z,70.70
2017-09-04T23:24:47.334Z,71.00
2017-09-04T23:27:13.713Z,70.90
2017-09-04T23:29:39.926Z,70.90
2017-09-04T23:32:06.138Z,71.10
2017-09-04T23:34:32.292Z,70.80
2017-09-04T23:36:58.460Z,70.70
2017-09-04T23:39:24.683Z,71.20
2017-09-04T23:41:50.834Z,71.50
2017-09-04T23:44:17.023Z,70.90
2017-09-04T23:46:46.972Z,70.90
2017-09-04T23:49:13.126Z,71.40
2017-09-04T23:51:39.351Z,72.00
2017-09-04T23:54:05.709Z,71.80
2017-09-04T23:56:31.886Z,71.10
2017-09-04T23:58:58.069Z,71.20
